createdAt,value
2019-03-28T00:01:08.811Z,76.83
2019-03-28T00:03:37.013Z,76.85
2019-03-28T00:06:05.262Z,76.84
2019-03-28T00:08:33.513Z,76.94
2019-03-28T00:11:01.725Z,77.13
2019-03-28T00:13:30.185Z,77.04
2019-03-28T00:15:58.753Z,76.96
2019-03-28T00:18:26.933Z,77.02
2019-03-28T00:20:55.197Z,76.99
2019-03-28T00:23:41.575Z,77.20
2019-03-28T00:26:09.794Z,77.16
2019-03-28T00:28:38.032Z,77.28
2019-03-28T00:31:06.249Z,77.46
2019-03-28T00:33:34.457Z,77.43
2019-03-28T00:36:02.705Z,77.57
2019-03-28T00:38:30.919Z,77.62
2019-03-28T00:40:59.143Z,77.75
2019-03-28T00:43:27.348Z,77.69
2019-03-28T00:45:56.205Z,77.63
2019-03-28T00:48:24.478Z,77.67
2019-03-28T00:50:52.755Z,77.59
2019-03-28T00:53:20.992Z,77.66
2019-03-28T00:55:49.345Z,77.38
2019-03-28T00:58:17.599Z,77.72
2019-03-28T01:00:45.820Z,77.46
2019-03-28T01:03:14.083Z,77.68
2019-03-28T01:05:42.435Z,77.61
2019-03-28T01:08:10.660Z,77.70
2019-03-28T01:10:38.973Z,77.59
2019-03-28T01:13:07.234Z,77.82
2019-03-28T01:15:35.498Z,77.67
2019-03-28T01:18:03.715Z,77.67
2019-03-28T01:20:31.953Z,77.81
2019-03-28T01:23:00.173Z,77.79
2019-03-28T01:25:28.391Z,77.77
2019-03-28T01:27:56.615Z,77.71
2019-03-28T01:30:24.847Z,77.80
2019-03-28T01:32:53.242Z,77.72
2019-03-28T01:35:21.513Z,77.68
2019-03-28T01:37:49.765Z,77.72
2019-03-28T01:40:17.965Z,77.89
2019-03-28T01:42:46.246Z,77.80
2019-03-28T01:45:14.485Z,77.75
2019-03-28T01:47:43.177Z,77.82
2019-03-28T01:50:11.710Z,77.81
2019-03-28T01:52:39.921Z,77.74
2019-03-28T01:55:08.140Z,77.80
2019-03-28T01:57:36.354Z,77.77
2019-03-28T02:00:06.434Z,77.86
2019-03-28T02:02:34.713Z,77.86
2019-03-28T02:05:03.218Z,77.75
2019-03-28T02:07:31.488Z,77.83
2019-03-28T02:09:59.739Z,77.83
2019-03-28T02:12:27.975Z,77.87
2019-03-28T02:14:56.233Z,77.89
2019-03-28T02:17:24.443Z,77.86
2019-03-28T02:19:52.687Z,77.83
2019-03-28T02:22:20.904Z,77.88
2019-03-28T02:24:49.146Z,77.85
2019-03-28T02:27:23.920Z,77.87
2019-03-28T02:29:47.344Z,77.92
2019-03-28T02:32:15.559Z,77.94
2019-03-28T02:34:43.830Z,77.72
2019-03-28T02:37:12.039Z,77.69
2019-03-28T02:39:40.300Z,77.80
2019-03-28T02:42:08.553Z,77.89
2019-03-28T02:44:37.509Z,77.72
2019-03-28T02:47:05.878Z,77.75
2019-03-28T02:49:34.122Z,77.79
2019-03-28T02:52:02.360Z,77.72
2019-03-28T02:54:31.537Z,77.82
2019-03-28T02:57:00.333Z,77.78
2019-03-28T02:59:28.786Z,77.82
2019-03-28T03:01:57.070Z,77.77
2019-03-28T03:04:25.305Z,77.82
2019-03-28T03:06:53.518Z,77.71
2019-03-28T03:09:21.748Z,77.68
2019-03-28T03:11:49.955Z,77.77
2019-03-28T03:14:18.177Z,77.74
2019-03-28T03:16:46.430Z,77.63
2019-03-28T03:19:14.693Z,77.62
2019-03-28T03:21:42.945Z,77.48
2019-03-28T03:24:11.166Z,77.50
2019-03-28T03:26:39.425Z,77.53
2019-03-28T03:29:07.662Z,77.35
2019-03-28T03:31:35.904Z,77.47
2019-03-28T03:34:05.355Z,77.31
2019-03-28T03:36:34.123Z,77.26
2019-03-28T03:39:02.378Z,77.44
2019-03-28T03:41:30.656Z,77.37
2019-03-28T03:43:58.902Z,77.33
2019-03-28T03:46:27.582Z,77.33
2019-03-28T03:48:56.284Z,77.36
2019-03-28T03:51:24.514Z,77.43
2019-03-28T03:53:52.781Z,77.51
2019-03-28T03:56:21.004Z,77.45
2019-03-28T03:58:49.224Z,77.43
2019-03-28T04:01:17.459Z,77.39
2019-03-28T04:03:46.933Z,77.49
2019-03-28T04:06:15.188Z,77.35
2019-03-28T04:08:43.443Z,77.42
2019-03-28T04:11:11.671Z,77.52
2019-03-28T04:13:39.904Z,77.50
2019-03-28T04:16:08.116Z,77.47
2019-03-28T04:18:36.498Z,77.50
2019-03-28T04:21:04.737Z,77.46
2019-03-28T04:23:32.987Z,77.54
2019-03-28T04:26:01.202Z,77.49
2019-03-28T04:28:32.262Z,77.55
2019-03-28T04:30:59.425Z,77.69
2019-03-28T04:33:27.659Z,77.54
2019-03-28T04:35:55.910Z,77.41
2019-03-28T04:38:24.665Z,77.50
2019-03-28T04:40:53.032Z,77.55
2019-03-28T04:43:21.322Z,77.58
2019-03-28T04:45:49.578Z,77.50
2019-03-28T04:48:17.783Z,77.29
2019-03-28T04:50:46.012Z,77.40
2019-03-28T04:53:14.225Z,77.44
2019-03-28T04:55:42.469Z,77.55
2019-03-28T04:58:10.689Z,77.50
2019-03-28T05:00:38.909Z,77.39
2019-03-28T05:03:07.126Z,77.47
2019-03-28T05:05:35.342Z,77.43
2019-03-28T05:08:03.566Z,77.45
2019-03-28T05:10:33.239Z,77.42
2019-03-28T05:13:01.589Z,77.33
2019-03-28T05:15:29.784Z,77.31
2019-03-28T05:17:58.051Z,77.21
2019-03-28T05:20:26.280Z,77.35
2019-03-28T05:22:54.527Z,77.44
2019-03-28T05:25:22.737Z,77.42
2019-03-28T05:27:50.959Z,77.44
2019-03-28T05:30:19.198Z,77.47
2019-03-28T05:32:47.404Z,77.54
2019-03-28T05:35:15.665Z,77.35
2019-03-28T05:37:43.929Z,77.49
2019-03-28T05:40:12.174Z,77.52
2019-03-28T05:42:40.391Z,77.55
2019-03-28T05:45:08.662Z,77.38
2019-03-28T05:47:36.903Z,77.47
2019-03-28T05:50:06.771Z,77.44
2019-03-28T05:52:34.991Z,77.49
2019-03-28T05:55:05.345Z,77.43
2019-03-28T05:57:33.241Z,77.49
2019-03-28T06:00:01.458Z,77.48
2019-03-28T06:02:29.662Z,77.60
2019-03-28T06:04:57.958Z,77.60
2019-03-28T06:07:26.208Z,77.77
2019-03-28T06:09:54.415Z,77.68
2019-03-28T06:12:22.673Z,77.79
2019-03-28T06:14:50.880Z,77.69
2019-03-28T06:17:19.098Z,77.78
2019-03-28T06:19:47.348Z,77.68
2019-03-28T06:22:15.566Z,77.78
2019-03-28T06:24:43.820Z,77.82
2019-03-28T06:27:12.055Z,77.78
2019-03-28T06:29:40.300Z,77.40
2019-03-28T06:32:08.864Z,77.62
2019-03-28T06:34:37.089Z,77.73
2019-03-28T06:37:06.404Z,77.70
2019-03-28T06:39:36.485Z,77.56
2019-03-28T06:42:04.965Z,77.71
2019-03-28T06:44:33.210Z,77.64
2019-03-28T06:47:01.515Z,77.85
2019-03-28T06:49:29.769Z,77.83
2019-03-28T06:51:58.002Z,77.83
2019-03-28T06:54:26.232Z,77.98
2019-03-28T06:56:54.447Z,78.04
2019-03-28T06:59:22.695Z,78.09
2019-03-28T07:01:51.985Z,78.12
2019-03-28T07:04:20.449Z,78.13
2019-03-28T07:06:48.699Z,78.04
2019-03-28T07:09:16.995Z,77.97
2019-03-28T07:11:45.229Z,78.14
2019-03-28T07:14:13.437Z,77.85
2019-03-28T07:16:42.701Z,77.77
2019-03-28T07:19:11.121Z,77.70
2019-03-28T07:21:39.325Z,77.88
2019-03-28T07:24:07.583Z,77.90
2019-03-28T07:26:35.914Z,77.59
2019-03-28T07:29:04.184Z,77.36
2019-03-28T07:31:35.348Z,77.07
2019-03-28T07:34:02.346Z,77.10
2019-03-28T07:36:30.593Z,76.71
2019-03-28T07:38:58.860Z,76.39
2019-03-28T07:41:27.076Z,76.33
2019-03-28T07:43:55.481Z,76.40
2019-03-28T07:46:23.720Z,76.45
2019-03-28T07:48:51.975Z,76.52
2019-03-28T07:51:20.193Z,76.25
2019-03-28T07:53:48.412Z,76.26
2019-03-28T07:56:16.656Z,76.65
2019-03-28T07:58:44.882Z,76.51
2019-03-28T08:01:13.156Z,75.89
2019-03-28T08:03:41.409Z,76.31
2019-03-28T08:06:12.559Z,76.07
2019-03-28T08:08:40.784Z,76.18
2019-03-28T08:11:09.535Z,75.93
2019-03-28T08:13:37.750Z,76.01
2019-03-28T08:16:06.030Z,75.79
2019-03-28T08:18:34.233Z,75.88
2019-03-28T08:21:02.451Z,75.80
2019-03-28T08:23:30.662Z,75.47
2019-03-28T08:25:58.912Z,75.50
2019-03-28T08:28:27.176Z,75.70
2019-03-28T08:30:55.386Z,75.47
2019-03-28T08:33:23.631Z,75.67
2019-03-28T08:35:51.848Z,75.51
2019-03-28T08:38:20.071Z,75.62
2019-03-28T08:40:48.296Z,75.79
2019-03-28T08:43:16.512Z,75.61
2019-03-28T08:45:44.748Z,75.47
2019-03-28T08:48:13.037Z,75.66
2019-03-28T08:50:41.239Z,75.85
2019-03-28T08:53:09.485Z,75.42
2019-03-28T08:55:37.775Z,75.14
2019-03-28T08:58:05.988Z,76.05
2019-03-28T09:00:44.694Z,75.24
2019-03-28T09:03:04.343Z,75.40
2019-03-28T09:05:32.559Z,74.89
2019-03-28T09:08:00.831Z,75.20
2019-03-28T09:10:29.042Z,74.90
2019-03-28T09:12:57.295Z,74.93
2019-03-28T09:15:25.668Z,74.87
2019-03-28T09:17:53.900Z,75.32
2019-03-28T09:20:22.125Z,74.87
2019-03-28T09:22:50.351Z,74.80
2019-03-28T09:25:18.593Z,75.43
2019-03-28T09:27:46.857Z,74.83
2019-03-28T09:30:16.713Z,74.83
2019-03-28T09:32:44.955Z,74.89
2019-03-28T09:35:16.424Z,75.04
2019-03-28T09:37:44.665Z,74.89
2019-03-28T09:40:12.872Z,75.34
2019-03-28T09:42:41.225Z,74.57
2019-03-28T09:45:09.449Z,74.12
2019-03-28T09:47:37.693Z,73.59
2019-03-28T09:50:07.552Z,73.64
2019-03-28T09:52:35.803Z,73.85
2019-03-28T09:55:05.350Z,73.21
2019-03-28T09:57:33.565Z,72.80
2019-03-28T10:00:01.810Z,73.17
2019-03-28T10:02:30.034Z,73.46
2019-03-28T10:04:58.282Z,72.95
2019-03-28T10:07:26.515Z,72.28
2019-03-28T10:09:54.783Z,72.42
2019-03-28T10:12:23.045Z,72.65
2019-03-28T10:14:51.259Z,72.46
2019-03-28T10:17:19.514Z,72.43
2019-03-28T10:19:47.736Z,72.61
2019-03-28T10:22:15.984Z,72.49
2019-03-28T10:24:44.625Z,72.71
2019-03-28T10:27:13.039Z,73.32
2019-03-28T10:29:41.290Z,73.06
2019-03-28T10:32:09.509Z,72.80
2019-03-28T10:34:37.763Z,72.96
2019-03-28T10:37:05.981Z,72.72
2019-03-28T10:39:34.196Z,71.45
2019-03-28T10:42:02.432Z,71.24
2019-03-28T10:44:30.642Z,71.29
2019-03-28T10:46:58.911Z,70.43
2019-03-28T10:49:27.121Z,70.55
2019-03-28T10:51:55.367Z,70.26
2019-03-28T10:54:25.708Z,69.99
2019-03-28T10:56:57.396Z,70.14
2019-03-28T10:59:24.649Z,69.84
2019-03-28T11:01:53.686Z,69.38
2019-03-28T11:04:22.582Z,69.40
2019-03-28T11:06:51.013Z,69.46
2019-03-28T11:09:19.267Z,68.17
2019-03-28T11:11:47.504Z,67.84
2019-03-28T11:14:15.718Z,67.15
2019-03-28T11:16:43.931Z,66.35
2019-03-28T11:19:15.441Z,65.97
2019-03-28T11:21:43.032Z,65.76
2019-03-28T11:24:11.287Z,65.13
2019-03-28T11:26:39.513Z,66.81
2019-03-28T11:29:07.870Z,66.17
2019-03-28T11:31:46.166Z,66.26
2019-03-28T11:34:06.438Z,66.81
2019-03-28T11:36:34.680Z,66.60
2019-03-28T11:39:03.099Z,66.66
2019-03-28T11:41:31.304Z,66.61
2019-03-28T11:43:59.565Z,66.55
2019-03-28T11:46:27.820Z,67.23
2019-03-28T11:48:56.058Z,66.88
2019-03-28T11:51:24.273Z,67.25
2019-03-28T11:53:52.502Z,67.83
2019-03-28T11:56:20.745Z,67.99
2019-03-28T11:58:48.966Z,67.81
2019-03-28T12:01:17.187Z,67.97
2019-03-28T12:03:45.417Z,68.09
2019-03-28T12:06:13.659Z,67.94
2019-03-28T12:08:41.872Z,68.61
2019-03-28T12:11:10.143Z,69.07
2019-03-28T12:13:44.591Z,69.39
2019-03-28T12:16:08.365Z,68.73
2019-03-28T12:18:36.571Z,68.84
2019-03-28T12:21:04.859Z,69.33
2019-03-28T12:23:33.113Z,69.94
2019-03-28T12:26:01.385Z,70.36
2019-03-28T12:28:29.565Z,70.05
2019-03-28T12:30:57.816Z,70.39
2019-03-28T12:33:26.065Z,70.18
2019-03-28T12:35:54.334Z,70.23
2019-03-28T12:38:22.556Z,70.65
2019-03-28T12:40:51.573Z,70.82
2019-03-28T12:43:19.810Z,70.92
2019-03-28T12:45:48.015Z,70.30
2019-03-28T12:48:16.248Z,70.42
2019-03-28T12:50:44.492Z,70.81
2019-03-28T12:53:14.415Z,71.26
2019-03-28T12:55:42.628Z,71.15
2019-03-28T12:58:11.031Z,71.62
2019-03-28T13:00:39.226Z,71.43
2019-03-28T13:03:07.445Z,71.30
2019-03-28T13:05:35.669Z,71.33
2019-03-28T13:08:03.889Z,71.40
2019-03-28T13:10:32.124Z,71.72
2019-03-28T13:13:00.342Z,71.12
2019-03-28T13:15:28.566Z,71.10
2019-03-28T13:17:56.853Z,70.55
2019-03-28T13:20:25.083Z,70.26
2019-03-28T13:22:53.331Z,69.53
2019-03-28T13:25:21.541Z,69.37
2019-03-28T13:27:49.763Z,68.59
2019-03-28T13:30:18.049Z,68.48
2019-03-28T13:32:46.282Z,68.37
2019-03-28T13:35:14.696Z,67.91
2019-03-28T13:37:42.931Z,67.82
2019-03-28T13:40:11.153Z,67.17
2019-03-28T13:42:39.356Z,67.58
2019-03-28T13:45:09.880Z,67.49
2019-03-28T13:47:38.090Z,67.78
2019-03-28T13:50:07.848Z,67.74
2019-03-28T13:52:36.076Z,67.87
2019-03-28T13:55:05.528Z,67.94
2019-03-28T13:57:34.650Z,67.92
2019-03-28T14:00:03.818Z,68.42
2019-03-28T14:02:32.039Z,68.28
2019-03-28T14:05:00.254Z,68.67
2019-03-28T14:07:28.544Z,68.57
2019-03-28T14:09:56.702Z,68.73
2019-03-28T14:12:24.941Z,68.97
2019-03-28T14:14:53.157Z,68.77
2019-03-28T14:17:21.380Z,69.36
2019-03-28T14:19:49.594Z,69.42
2019-03-28T14:22:18.273Z,68.89
2019-03-28T14:24:46.710Z,68.73
2019-03-28T14:27:14.951Z,68.42
2019-03-28T14:29:43.159Z,68.65
2019-03-28T14:32:11.382Z,68.59
2019-03-28T14:34:40.003Z,68.62
2019-03-28T14:37:08.226Z,68.60
2019-03-28T14:39:36.461Z,68.54
2019-03-28T14:42:04.767Z,68.55
2019-03-28T14:44:33.005Z,68.75
2019-03-28T14:47:01.221Z,69.33
2019-03-28T14:49:29.432Z,70.04
2019-03-28T14:51:57.657Z,70.02
2019-03-28T14:54:25.864Z,70.83
2019-03-28T14:56:54.353Z,70.69
2019-03-28T14:59:32.320Z,71.16
2019-03-28T15:01:52.525Z,71.81
2019-03-28T15:04:20.742Z,70.96
2019-03-28T15:06:48.995Z,70.99
2019-03-28T15:09:17.200Z,70.87
2019-03-28T15:11:45.431Z,71.52
2019-03-28T15:14:13.660Z,70.70
2019-03-28T15:16:41.872Z,70.61
2019-03-28T15:19:10.109Z,70.42
2019-03-28T15:21:38.334Z,70.33
2019-03-28T15:24:06.545Z,69.87
2019-03-28T15:26:34.813Z,69.69
2019-03-28T15:29:03.086Z,69.83
2019-03-28T15:31:31.318Z,68.86
2019-03-28T15:33:59.522Z,68.51
2019-03-28T15:36:27.753Z,68.45
2019-03-28T15:38:55.972Z,68.15
2019-03-28T15:41:24.189Z,68.01
2019-03-28T15:43:52.408Z,67.64
2019-03-28T15:46:20.648Z,67.75
2019-03-28T15:48:48.931Z,67.64
2019-03-28T15:51:17.139Z,67.68
2019-03-28T15:53:45.373Z,67.66
2019-03-28T15:56:13.599Z,67.81
2019-03-28T15:58:41.828Z,67.75
2019-03-28T16:01:10.082Z,67.90
2019-03-28T16:03:52.112Z,68.07
2019-03-28T16:06:08.251Z,67.92
2019-03-28T16:08:36.491Z,68.16
2019-03-28T16:11:04.706Z,67.60
2019-03-28T16:13:32.931Z,67.68
2019-03-28T16:16:01.144Z,67.32
2019-03-28T16:18:29.365Z,67.43
2019-03-28T16:20:57.767Z,67.42
2019-03-28T16:23:26.001Z,67.45
2019-03-28T16:25:54.209Z,67.76
2019-03-28T16:28:22.437Z,67.51
2019-03-28T16:30:50.700Z,67.51
2019-03-28T16:33:18.958Z,67.30
2019-03-28T16:35:47.173Z,67.37
2019-03-28T16:38:15.395Z,67.38
2019-03-28T16:40:43.612Z,67.46
2019-03-28T16:43:11.848Z,67.52
2019-03-28T16:45:40.083Z,67.73
2019-03-28T16:48:08.298Z,67.41
2019-03-28T16:50:36.523Z,67.60
2019-03-28T16:53:04.753Z,67.35
2019-03-28T16:55:33.011Z,66.93
2019-03-28T16:58:01.287Z,66.78
2019-03-28T17:00:34.326Z,66.75
2019-03-28T17:03:02.546Z,66.55
2019-03-28T17:05:34.538Z,66.49
2019-03-28T17:08:01.977Z,65.63
2019-03-28T17:10:43.556Z,65.08
2019-03-28T17:13:11.771Z,64.49
2019-03-28T17:15:40.003Z,64.68
2019-03-28T17:18:08.198Z,64.69
2019-03-28T17:20:36.423Z,64.70
2019-03-28T17:23:04.634Z,65.15
2019-03-28T17:25:32.846Z,65.04
2019-03-28T17:28:01.073Z,64.89
2019-03-28T17:30:29.293Z,65.12
2019-03-28T17:32:57.518Z,65.12
2019-03-28T17:35:25.730Z,65.10
2019-03-28T17:37:53.965Z,65.07
2019-03-28T17:40:22.191Z,65.25
2019-03-28T17:42:50.453Z,65.21
2019-03-28T17:45:18.674Z,65.25
2019-03-28T17:47:46.904Z,65.38
2019-03-28T17:50:15.124Z,65.25
2019-03-28T17:52:43.362Z,65.08
2019-03-28T17:55:11.584Z,65.01
2019-03-28T17:57:39.914Z,65.45
2019-03-28T18:00:08.577Z,65.34
2019-03-28T18:02:36.812Z,65.45
2019-03-28T18:05:09.659Z,65.47
2019-03-28T18:07:36.285Z,65.36
2019-03-28T18:10:05.850Z,65.13
2019-03-28T18:12:34.085Z,65.21
2019-03-28T18:15:02.295Z,65.28
2019-03-28T18:17:31.329Z,65.24
2019-03-28T18:19:59.543Z,65.48
2019-03-28T18:22:27.783Z,65.26
2019-03-28T18:24:56.011Z,65.36
2019-03-28T18:27:24.233Z,65.31
2019-03-28T18:29:53.681Z,65.25
2019-03-28T18:32:22.079Z,65.27
2019-03-28T18:35:04.566Z,65.47
2019-03-28T18:37:20.259Z,65.36
2019-03-28T18:39:48.471Z,65.48
2019-03-28T18:42:16.685Z,65.46
2019-03-28T18:44:44.936Z,65.50
2019-03-28T18:47:13.150Z,65.60
2019-03-28T18:49:41.362Z,65.83
2019-03-28T18:52:09.596Z,65.97
2019-03-28T18:54:37.829Z,66.09
2019-03-28T18:57:06.568Z,66.24
2019-03-28T18:59:34.787Z,66.47
2019-03-28T19:02:02.995Z,66.67
2019-03-28T19:04:31.209Z,66.77
2019-03-28T19:06:59.425Z,66.87
2019-03-28T19:09:27.644Z,66.87
2019-03-28T19:11:56.158Z,67.04
2019-03-28T19:14:24.351Z,67.03
2019-03-28T19:16:52.860Z,67.14
2019-03-28T19:19:21.101Z,67.25
2019-03-28T19:21:49.484Z,67.22
2019-03-28T19:24:17.706Z,67.19
2019-03-28T19:26:45.917Z,67.38
2019-03-28T19:29:14.135Z,67.40
2019-03-28T19:31:42.352Z,67.42
2019-03-28T19:34:10.574Z,67.60
2019-03-28T19:36:38.811Z,67.62
2019-03-28T19:39:10.567Z,67.77
2019-03-28T19:41:39.100Z,67.67
2019-03-28T19:44:07.323Z,67.91
2019-03-28T19:46:35.541Z,68.09
2019-03-28T19:49:03.762Z,68.18
2019-03-28T19:51:31.991Z,68.15
2019-03-28T19:54:00.219Z,68.37
2019-03-28T19:56:28.477Z,68.57
2019-03-28T19:58:57.430Z,68.43
2019-03-28T20:01:25.857Z,68.56
2019-03-28T20:03:55.062Z,68.58
2019-03-28T20:06:24.414Z,68.63
2019-03-28T20:08:53.070Z,68.66
2019-03-28T20:11:21.426Z,68.67
2019-03-28T20:13:50.023Z,68.60
2019-03-28T20:16:18.514Z,68.66
2019-03-28T20:18:46.730Z,68.73
2019-03-28T20:21:14.955Z,68.78
2019-03-28T20:23:43.183Z,68.74
2019-03-28T20:26:11.562Z,68.90
2019-03-28T20:28:39.798Z,69.01
2019-03-28T20:31:08.057Z,69.18
2019-03-28T20:33:36.291Z,69.07
2019-03-28T20:36:30.260Z,69.08
2019-03-28T20:38:34.676Z,69.02
2019-03-28T20:41:02.895Z,69.19
2019-03-28T20:43:31.114Z,69.29
2019-03-28T20:45:59.367Z,69.39
2019-03-28T20:48:27.618Z,69.41
2019-03-28T20:50:55.827Z,69.23
2019-03-28T20:53:24.113Z,69.18
2019-03-28T20:55:52.334Z,69.17
2019-03-28T20:58:20.550Z,69.45
2019-03-28T21:00:48.788Z,69.37
2019-03-28T21:03:17.011Z,69.32
2019-03-28T21:05:45.384Z,69.20
2019-03-28T21:08:13.597Z,69.28
2019-03-28T21:10:41.827Z,69.13
2019-03-28T21:13:10.121Z,69.18
2019-03-28T21:15:38.344Z,69.17
2019-03-28T21:18:06.580Z,69.08
2019-03-28T21:20:34.809Z,69.06
2019-03-28T21:23:05.184Z,69.19
2019-03-28T21:25:33.026Z,69.16
2019-03-28T21:28:01.251Z,69.36
2019-03-28T21:30:29.476Z,69.09
2019-03-28T21:32:58.163Z,69.03
2019-03-28T21:35:26.556Z,68.99
2019-03-28T21:37:54.786Z,69.05
2019-03-28T21:40:23.039Z,68.93
2019-03-28T21:42:51.277Z,68.95
2019-03-28T21:45:19.492Z,68.85
2019-03-28T21:47:47.707Z,68.96
2019-03-28T21:50:15.995Z,69.02
2019-03-28T21:52:44.251Z,69.12
2019-03-28T21:55:12.474Z,69.09
2019-03-28T21:57:42.516Z,69.18
2019-03-28T22:00:11.625Z,68.91
2019-03-28T22:02:39.845Z,68.95
2019-03-28T22:05:08.067Z,69.17
2019-03-28T22:07:36.281Z,68.88
2019-03-28T22:10:08.737Z,68.92
2019-03-28T22:12:35.896Z,68.95
2019-03-28T22:15:07.925Z,68.94
2019-03-28T22:17:36.874Z,69.02
2019-03-28T22:20:06.339Z,69.18
2019-03-28T22:22:34.581Z,69.21
2019-03-28T22:25:02.808Z,69.22
2019-03-28T22:27:31.037Z,69.28
2019-03-28T22:29:59.240Z,69.23
2019-03-28T22:32:27.469Z,69.41
2019-03-28T22:34:55.712Z,69.45
2019-03-28T22:37:23.921Z,69.44
2019-03-28T22:39:52.227Z,69.35
2019-03-28T22:42:20.452Z,69.15
2019-03-28T22:44:48.667Z,69.68
2019-03-28T22:47:16.888Z,69.42
2019-03-28T22:49:45.100Z,69.45
2019-03-28T22:52:13.458Z,69.36
2019-03-28T22:54:41.682Z,69.38
2019-03-28T22:57:09.907Z,69.29
2019-03-28T22:59:38.122Z,69.29
2019-03-28T23:02:06.459Z,69.40
2019-03-28T23:04:34.676Z,69.43
2019-03-28T23:07:10.996Z,69.48
2019-03-28T23:09:32.876Z,69.35
2019-03-28T23:12:01.095Z,69.32
2019-03-28T23:14:29.429Z,69.40
2019-03-28T23:16:57.651Z,69.30
2019-03-28T23:19:25.895Z,69.40
2019-03-28T23:21:54.122Z,69.43
2019-03-28T23:24:22.342Z,69.52
2019-03-28T23:26:50.622Z,69.30
2019-03-28T23:29:18.833Z,69.63
2019-03-28T23:31:47.073Z,69.60
2019-03-28T23:34:15.268Z,69.62
2019-03-28T23:36:43.796Z,69.81
2019-03-28T23:39:12.013Z,69.60
2019-03-28T23:41:40.230Z,69.65
2019-03-28T23:44:08.458Z,69.73
2019-03-28T23:46:37.216Z,69.79
2019-03-28T23:49:06.198Z,69.87
2019-03-28T23:51:34.448Z,69.68
2019-03-28T23:54:02.718Z,69.62
2019-03-28T23:56:31.990Z,69.87
2019-03-28T23:59:00.215Z,70.01
